Brewton, AL (36426)

3:33 AM CDT on June 27, 2017 (GMT -0500)
Jim Cantore - Jay River Hill | | Change Station
Active Advisory: Flood Warning

Elev 265 ft 30.96 °N, 87.20 °W | Updated 3 minutes ago

Partly Cloudy
Partly Cloudy
68.9 °F
Feels Like 68.9 °F
N
0.0
Wind Variable Wind from West

Today
High -- | Low -- °F
--% Chance of Precip.
Yesterday
High -- | Low -- °F
Precip. -- in
Pressure 30.02 in
Visibility 10.0 miles
Clouds Scattered Clouds 4300 ft
Dew Point 66 °F
Humidity 91%
Rainfall 0.00 in
Snow Depth Not available.
5:46 AM 7:56 PM
Waxing Crescent, 15% visible
METAR KGZH 270753Z AUTO 00000KT 10SM SCT043 19/18 A3003 RMK AO2 SLP165 T01940178
Pressure 30.02 in
Visibility 10.0 miles
Clouds Scattered Clouds 4300 ft
Dew Point 66 °F
Humidity 91%
Rainfall 0.00 in
Snow Depth Not available.
5:46 AM 7:56 PM
Waxing Crescent, 15% visible
METAR KGZH 270753Z AUTO 00000KT 10SM SCT043 19/18 A3003 RMK AO2 SLP165 T01940178

Get Your Daily Forecast Email!

Thanks for signing up!

Be on the lookout for a verification email in your inbox.

You'll start receiving severe weather alerts in your inbox..

×

10-Day Weather Forecast

Almanac

Astronomy

Jun. 27, 2017 Rise Set
Actual Time
Civil Twilight
Nautical Twilight
Astronomical Twilight
Moon
Length of Visible Light
Length of Day
Tomorrow will be .
, % of the Moon is Illuminated

Today's Extremes

State Highs State Lows

Community

WunderPhotos

Category 6

Welcome to Category 6. This is the collective home for Weather Underground's featured writeups by Dr. Jeff Masters (right), Bob Henson (left), Chris Burt, and other regular contributors.

Nearby

Air Quality

  Air Quality AQ Index Pollutant
Not available.

Snow Depth

Station Depth Elevation

Earthquake Activity

City Distance Mag. Time & Date
Minimum magnitude displayed is 2.5.

Coastal Water Temperatures

Place Temperature

Stations

Nearby Weather Stations

Station Location Temp. Windchill Dew Point Humidity Wind Precip. Elev Updated Type
                   

Watches & Warnings

Flood Warning
Issued: 9:04 PM CDT Jun. 26, 2017 – National Weather Service

... Flood Warning extended until Friday evening... the Flood Warning continues for
the Escambia River near century
* until Friday evening.
* At 8 PM Monday the stage was 18.2 feet.
* Minor flooding is occurring and minor flooding is forecast.
* Flood stage is 17.0 feet.
* The river will continue to fall to below flood stage by Friday early
afternoon.
* At 13 feet... minor overflow of lowlands in the area.
* At 17 feet... considerable flooding of lowlands.
* At 19 feet... low lying pasture will flood. Cattle should be moved to higher
ground.


Lat... Lon 3100 8718 3100 8715 3090 8728 3077 8729
3077 8733 3093 8731